Bontang Airport


Codes: WRLC/BXT
Name: Bontang Airport
City: Bontang-Borneo Island
Country: Indonesia
Elevation: 49 ft.
Wikipedia:

Photos at Bontang Airport


   Photos courtesy of SpottingLog. You can add your own sightings and photos by signing up for a free trial today.



No photos found.

Weather at Bontang Airport


Time (UTC)DescriptionTempratureWindCloud coverageVisibilityPressureHumidity
23-May-2024 21:00Light Rain26°C4 mph, W99%10000m1007hPa91%
24-May-2024 00:00Overcast Clouds27°C2 mph, W99%10000m1008hPa85%
24-May-2024 03:00Broken Clouds30°C4 mph, E59%10000m1008hPa67%
24-May-2024 06:00Light Rain30°C7 mph, E47%10000m1006hPa69%
24-May-2024 09:00Light Rain29°C4 mph, E90%10000m1005hPa72%
24-May-2024 12:00Light Rain28°C2 mph, SE94%10000m1008hPa82%
24-May-2024 15:00Light Rain28°C4 mph, SE97%10000m1009hPa84%
24-May-2024 18:00Light Rain27°C4 mph, S92%10000m1007hPa85%
24-May-2024 21:00Moderate Rain26°C4 mph, W87%10000m1008hPa89%
25-May-2024 00:00Light Rain26°C4 mph, W93%10000m1010hPa89%
25-May-2024 03:00Light Rain30°C2 mph, S99%10000m1009hPa70%
25-May-2024 06:00Light Rain30°C2 mph, SE100%10000m1006hPa76%
25-May-2024 09:00Light Rain29°C2 mph, S100%10000m1007hPa77%
25-May-2024 12:00Light Rain27°C4 mph, SW99%10000m1009hPa86%
25-May-2024 15:00Light Rain26°C4 mph, W99%10000m1010hPa90%
25-May-2024 18:00Light Rain25°C7 mph, W98%9407m1009hPa93%
25-May-2024 21:00Light Rain25°C7 mph, W96%10000m1009hPa94%
26-May-2024 00:00Light Rain26°C7 mph, W97%10000m1010hPa90%
26-May-2024 03:00Light Rain28°C4 mph, W96%10000m1009hPa80%
26-May-2024 06:00Light Rain29°C2 mph, S60%10000m1006hPa80%
26-May-2024 09:00Light Rain29°C4 mph, SE23%10000m1006hPa78%
26-May-2024 12:00Moderate Rain27°C2 mph, S18%10000m1009hPa85%
26-May-2024 15:00Light Rain26°C2 mph, W31%10000m1009hPa91%
26-May-2024 18:00Light Rain26°C4 mph, W33%10000m1008hPa90%
26-May-2024 21:00Moderate Rain25°C4 mph, W92%10000m1008hPa92%
27-May-2024 00:00Moderate Rain26°C4 mph, W95%6382m1010hPa90%
27-May-2024 03:00Moderate Rain27°C4 mph, NW100%5564m1009hPa87%
27-May-2024 06:00Moderate Rain26°C7 mph, NE100%10000m1007hPa88%
27-May-2024 09:00Moderate Rain25°C2 mph, NE100%10000m1007hPa94%
27-May-2024 12:00Light Rain25°C2 mph, W100%10000m1009hPa94%
27-May-2024 15:00Light Rain25°C7 mph, W99%5640m1009hPa92%
27-May-2024 18:00Light Rain25°C9 mph, W100%10000m1008hPa95%
27-May-2024 21:00Light Rain25°C9 mph, W100%10000m1008hPa94%
28-May-2024 00:00Light Rain25°C9 mph, W100%10000m1010hPa94%
28-May-2024 03:00Moderate Rain25°C11 mph, W100%10000m1010hPa94%
28-May-2024 06:00Light Rain25°C11 mph, W100%10000m1008hPa95%
28-May-2024 09:00Light Rain25°C9 mph, W100%10000m1008hPa93%
28-May-2024 12:00Light Rain24°C9 mph, W100%10000m1010hPa93%
28-May-2024 15:00Light Rain24°C7 mph, W99%10000m1011hPa93%
28-May-2024 18:00Overcast Clouds24°C9 mph, W100%10000m1009hPa93%